Terminal Aerodrome Forecast
Issued by NWS Wakefield, VA

Home | Current Version | Previous Version | Text Only | Print | Product List | Glossary On
Versions: 1 2 3 4 5 6 7 8 9 10 11 12 13 14 15 16 17 18 19 20 21
000
FTUS41 KAKQ 230025 AAA
TAFSBY
TAF AMD
KSBY 230025Z 2300/2324 00000KT P6SM FEW005 BKN050
      TEMPO 2300/2302 1/4SM FG VV002
     FM230200 00000KT 2SM BR OVC004
     FM231200 03006KT P6SM OVC008
     FM231500 08009KT 3SM RA OVC012
     FM232000 10009KT 3SM +RA OVC008=

USA.gov is the U.S. government's official web portal to all federal, state and local government web resources and services.